logo
Search for airport 
image banner adimage banner adimage banner ad
image banner ad

EDYZ - Gow02-Z01

Located in , Germany

ICAO - , IATA -

Data provided by Airmate  

General information

Coordinates: N54°3'21" E7°2'18"
Elevation is 134 feet MSL.
 
View others Airports in Schleswig-Holstein

Operational data

Special qualification required
Current time UTC:
Current local time:
Weather at : EHHW - Buitengaats / Bg-Ohvs2 ( 65 km )
METAR: EHHW 241625Z AUTO 19024KT 9999 NCD 18/10 Q1022
View NOTAMs / SUP AIP / TFR affecting this airport [VIEW]
Communications frequencies: [VIEW]

Runways:

Airport contact information

Address: Germany

Satellite view of EDYZ